Weather observations for the past three days for
Knoxville
| Date | Time (cdt) | Wind (kph) | Vis. (km) | Weather | Sky Cond. | Temperature (ºC) | Relative Humidity | Wind Chill (°C) | Heat Index (°C) | Pressure | Precipitation (cm) | ||||||
|---|---|---|---|---|---|---|---|---|---|---|---|---|---|---|---|---|---|
| Air | Dwpt | 6 hour | altimeter (cm) | sea level (mb) | 1 hr | 3 hr | 6 hr | ||||||||||
| Max. | Min. | ||||||||||||||||
| 09 | 03:15 | W 11 | 16.09 | Fair | CLR | 10 | 8 | 88% | 9 | 75.39 | 0.0 | ||||||
| 09 | 03:00 | W 11 | 16.09 | Fair | CLR | 11 | 9 | 88% | 75.39 | 0.0 | |||||||
| 09 | 02:35 | SW 11 | 16.09 | Fair | CLR | 12 | 9 | 82% | 75.41 | 0.0 | |||||||
| 09 | 02:15 | W 17 | 16.09 | Fair | CLR | 12 | 9 | 82% | 75.44 | 0.0 | |||||||
| 09 | 01:55 | W 13 | 16.09 | A Few Clouds | FEW110 | 12 | 9 | 82% | 75.44 | 0.0 | |||||||
| 09 | 01:35 | SW 13 G 24 | 16.09 | A Few Clouds | FEW110 | 13 | 10 | 82% | 75.41 | 0.0 | |||||||
| 09 | 01:15 | SW 19 | 16.09 | Fair | CLR | 14 | 10 | 77% | 75.41 | 0.0 | |||||||
| 09 | 00:55 | SW 19 | 16.09 | Fair | CLR | 14 | 10 | 77% | 75.41 | 0.0 | |||||||
| 09 | 00:35 | SW 17 | 16.09 | Fair | CLR | 14 | 10 | 77% | 75.41 | 0.0 | |||||||
| 09 | 00:15 | SW 20 | 16.09 | Fair | CLR | 14 | 10 | 77% | 75.41 | 0.0 | |||||||
| 08 | 23:55 | SW 19 G 30 | 16.09 | Fair | CLR | 14 | 10 | 77% | 75.41 | 0.0 | |||||||
| 08 | 23:35 | SW 19 | 16.09 | Fair | CLR | 15 | 10 | 72% | 75.44 | 0.0 | |||||||
| 08 | 23:15 | SW 20 | 16.09 | Fair | CLR | 15 | 10 | 72% | 75.44 | 0.0 | |||||||
| 08 | 22:55 | SW 20 G 33 | 16.09 | Fair | CLR | 15 | 10 | 72% | 75.44 | 0.0 | |||||||
| 08 | 22:35 | SW 20 | 16.09 | Fair | CLR | 15 | 10 | 72% | 75.44 | 0.0 | |||||||
| 08 | 22:15 | SW 20 | 16.09 | Mostly Cloudy | BKN120 | 16 | 10 | 68% | 75.44 | 0.0 | |||||||
| 08 | 21:55 | SW 19 G 28 | 16.09 | Mostly Cloudy | BKN120 | 16 | 10 | 68% | 75.44 | 0.0 | |||||||
| 08 | 21:35 | SW 22 | 16.09 | Partly Cloudy | SCT120 | 17 | 10 | 64% | 75.44 | 0.0 | |||||||
| 08 | 21:15 | SW 17 | 16.09 | Mostly Cloudy | BKN110 BKN130 | 17 | 9 | 60% | 75.44 | 0.0 | |||||||
| 08 | 20:55 | S 17 G 26 | 16.09 | A Few Clouds | FEW100 | 18 | 9 | 56% | 75.41 | 0.0 | |||||||
| 08 | 20:35 | SW 20 G 30 | 16.09 | Fair | CLR | 18 | 8 | 52% | 75.39 | 0.0 | |||||||
| 08 | 20:15 | SW 17 | 16.09 | Fair | CLR | 19 | 6 | 43% | 75.39 | 0.0 | |||||||
| 08 | 19:55 | SW 19 | 16.09 | Fair | CLR | 20 | 6 | 40% | 75.36 | 0.0 | |||||||
| 08 | 19:35 | SW 19 | 16.09 | Fair | CLR | 21 | 5 | 35% | 75.36 | 0.0 | |||||||
| 08 | 19:15 | SW 13 G 24 | 16.09 | Fair | CLR | 21 | 4 | 33% | 75.36 | 0.0 | |||||||
| 08 | 18:55 | SW 13 G 22 | 16.09 | Fair | CLR | 22 | 3 | 29% | 75.39 | 0.0 | |||||||
| 08 | 18:35 | S 20 | 16.09 | Fair | CLR | 22 | 4 | 31% | 75.39 | 0.0 | |||||||
| 08 | 18:15 | SW 20 | 16.09 | Fair | CLR | 22 | 3 | 29% | 75.41 | 0.0 | |||||||
| 08 | 17:55 | S 11 G 24 | 14.48 | Fair | CLR | 22 | 4 | 31% | 75.41 | 0.0 | |||||||
| 08 | 17:35 | SW 17 | 16.09 | Fair | CLR | 22 | 3 | 29% | 75.41 | 0.0 | |||||||
| 08 | 17:15 | SW 19 | 16.09 | Fair | CLR | 22 | 4 | 31% | 75.44 | 0.0 | |||||||
| 08 | 16:55 | SW 19 | 16.09 | A Few Clouds | FEW080 | 23 | 3 | 27% | 75.44 | 0.0 | |||||||
| 08 | 16:35 | S 9 G 19 | 14.48 | Fair | CLR | 22 | 4 | 31% | 75.46 | 0.0 | |||||||
| 08 | 16:15 | SW 17 | 16.09 | Fair | CLR | 22 | 2 | 27% | 75.46 | 0.0 | |||||||
| 08 | 15:55 | W 17 G 30 | 16.09 | A Few Clouds | FEW085 | 23 | 2 | 25% | 75.49 | 0.0 | |||||||
| 08 | 15:35 | SW 13 G 26 | 16.09 | Fair | CLR | 22 | 2 | 27% | 75.49 | 0.0 | |||||||
| 08 | 15:15 | W 20 | 16.09 | Fair | CLR | 22 | 2 | 27% | 75.51 | 0.0 | |||||||
| 08 | 14:55 | S 13 | 11.27 | Fair | CLR | 22 | 2 | 27% | 75.54 | 0.0 | |||||||
| 08 | 14:35 | Vrbl 11 G 26 | 16.09 | Fair | CLR | 22 | 2 | 27% | 75.57 | 0.0 | |||||||
| 08 | 14:15 | W 17 | 11.27 | Fair | CLR | 22 | 1 | 25% | 75.57 | 0.0 | |||||||
| 08 | 13:55 | S 13 | 16.09 | Fair | CLR | 21 | 4 | 33% | 75.59 | 0.0 | |||||||
| 08 | 13:35 | S 11 | 14.48 | Fair | CLR | 21 | 3 | 31% | 75.59 | 0.0 | |||||||
| 08 | 13:15 | Vrbl 9 G 20 | 16.09 | Fair | CLR | 21 | 3 | 31% | 75.62 | 0.0 | |||||||
| 08 | 12:55 | S 9 | 16.09 | Fair | CLR | 20 | 1 | 28% | 75.62 | 0.0 | |||||||
| 08 | 12:35 | S 9 | 14.48 | Fair | CLR | 20 | 4 | 35% | 75.64 | 0.0 | |||||||
| 08 | 12:15 | Vrbl 7 G 19 | 16.09 | Fair | CLR | 20 | 2 | 30% | 75.64 | 0.0 | |||||||
| 08 | 11:55 | Vrbl 7 | 16.09 | Fair | CLR | 19 | 5 | 40% | 75.67 | 0.0 | |||||||
| 08 | 11:35 | Calm | 16.09 | Fair | CLR | 19 | 7 | 46% | 75.69 | 0.0 | |||||||
| 08 | 11:15 | S 6 | 3.22 | Fair with Haze | CLR | 18 | 6 | 46% | 75.72 | 0.0 | |||||||
| 08 | 10:55 | Calm | 12.87 | Fair | CLR | 18 | 8 | 52% | 75.72 | 0.0 | |||||||
| 08 | 10:35 | S 6 | 11.27 | Fair | CLR | 16 | 8 | 59% | 75.72 | 0.0 | |||||||
| 08 | 10:15 | Calm | 14.48 | Fair | CLR | 15 | 8 | 63% | 75.72 | 0.0 | |||||||
| 08 | 09:55 | S 7 | 4.02 | Fair with Haze | CLR | 14 | 8 | 67% | 75.74 | 0.0 | |||||||
| 08 | 09:35 | SE 7 | 1.61 | Fair with Haze | CLR | 13 | 7 | 67% | 75.74 | 0.0 | |||||||
| 08 | 09:15 | Calm | 16.09 | Fair | CLR | 12 | 7 | 72% | 75.77 | 0.0 | |||||||
| 08 | 08:55 | S 7 | 0.00 | Fair | CLR | 11 | 6 | 72% | 75.77 | 0.0 | |||||||
| 08 | 08:35 | Calm | 14.48 | Fair | CLR | 11 | 5 | 67% | 75.74 | 0.0 | |||||||
| 08 | 08:15 | E 7 | 16.09 | Fair | CLR | 10 | 5 | 71% | 9 | 75.69 | 0.0 | ||||||
| 08 | 07:55 | S 7 | 4.83 | Fair with Haze | CLR | 9 | 4 | 71% | 8 | 75.72 | 0.0 | ||||||
| 08 | 07:35 | E 11 | 16.09 | Fair | CLR | 9 | 3 | 66% | 8 | 75.69 | 0.0 | ||||||
| 08 | 07:15 | SE 11 | 16.09 | Fair | CLR | 10 | 2 | 58% | 9 | 75.69 | 0.0 | ||||||
| 08 | 06:55 | E 11 | 16.09 | A Few Clouds | FEW070 FEW090 FEW130 | 10 | 2 | 58% | 9 | 75.72 | 0.0 | ||||||
| 08 | 06:35 | E 7 | 14.48 | Mostly Cloudy | FEW070 BKN085 | 9 | 1 | 58% | 8 | 75.72 | 0.0 | ||||||
| 08 | 06:15 | E 7 | 14.48 | Mostly Cloudy | BKN090 BKN120 | 9 | 1 | 58% | 8 | 75.72 | 0.0 | ||||||
| 08 | 05:55 | E 6 | 16.09 | Overcast | SCT100 OVC120 | 10 | 1 | 54% | 75.74 | 0.0 | |||||||
| 08 | 05:35 | Calm | 14.48 | Partly Cloudy | BKN120 SCT190 | 9 | 2 | 62% | 75.72 | 0.0 | |||||||
| 08 | 05:15 | NE 7 | 16.09 | Fair | CLR | 8 | 2 | 66% | 7 | 75.74 | 0.0 | ||||||
| 08 | 04:55 | NE 7 | 12.87 | A Few Clouds | FEW160 | 8 | 2 | 66% | 7 | 75.72 | 0.0 | ||||||
| 08 | 04:35 | Calm | 16.09 | Fair | CLR | 8 | 3 | 71% | 75.74 | 0.0 | |||||||
| 08 | 04:15 | Calm | 16.09 | Fair | CLR | 9 | 3 | 66% | 75.74 | 0.0 | |||||||
| 08 | 03:55 | Calm | 16.09 | Fair | CLR | 10 | 4 | 67% | 75.72 | 0.0 | |||||||
| 08 | 03:35 | NE 7 | 16.09 | Fair | CLR | 10 | 4 | 67% | 9 | 75.69 | 0.0 | ||||||
| 08 | 03:15 | NE 7 | 16.09 | Fair | CLR | 10 | 5 | 71% | 9 | 75.69 | 0.0 | ||||||
| 08 | 02:55 | NE 9 | 16.09 | Fair | CLR | 10 | 5 | 71% | 9 | 75.69 | 0.0 | ||||||
| 08 | 02:35 | N 7 | 16.09 | Fair | CLR | 10 | 5 | 71% | 9 | 75.72 | 0.0 | ||||||
| 08 | 02:15 | NE 7 | 16.09 | Fair | CLR | 11 | 5 | 67% | 75.72 | 0.0 | |||||||
| 08 | 01:55 | NE 11 | 16.09 | Fair | CLR | 11 | 5 | 67% | 75.72 | 0.0 | |||||||
| 08 | 01:35 | NE 9 | 2.41 | Fair with Haze | CLR | 11 | 4 | 62% | 75.72 | 0.0 | |||||||
| 08 | 01:15 | NE 6 | 16.09 | Fair | CLR | 12 | 4 | 58% | 75.72 | 0.0 | |||||||
| 08 | 00:55 | E 7 | 16.09 | Fair | CLR | 13 | 4 | 55% | 75.72 | 0.0 | |||||||
| 08 | 00:35 | E 9 | 16.09 | Fair | CLR | 13 | 4 | 55% | 75.72 | 0.0 | |||||||
| 08 | 00:15 | NE 9 | 16.09 | Fair | CLR | 13 | 4 | 55% | 75.72 | 0.0 | |||||||
| 07 | 23:55 | NE 7 | 16.09 | A Few Clouds | FEW070 | 13 | 4 | 55% | 75.74 | 0.0 | |||||||
| 07 | 23:35 | NE 9 | 16.09 | Mostly Cloudy | BKN070 BKN085 | 14 | 4 | 51% | 75.74 | 0.0 | |||||||
| 07 | 23:15 | E 9 | 16.09 | Overcast | BKN075 OVC090 | 15 | 4 | 48% | 75.74 | 0.0 | |||||||
| 07 | 22:50 | E 9 | 16.09 | Overcast | BKN080 OVC095 | 15 | 4 | 48% | 75.77 | 0.0 | |||||||
| 07 | 22:35 | E 7 | 16.09 | Overcast | BKN085 OVC100 | 15 | 4 | 48% | 75.77 | 0.0 | |||||||
| 07 | 22:15 | NE 9 | 16.09 | Overcast | BKN085 OVC100 | 15 | 4 | 48% | 75.77 | 0.0 | |||||||
| 07 | 21:55 | E 9 | 16.09 | Overcast | OVC085 | 16 | 4 | 45% | 75.74 | 0.0 | |||||||
| 07 | 21:35 | E 13 | 16.09 | Overcast | OVC090 | 16 | 3 | 42% | 75.74 | 0.0 | |||||||
| 07 | 21:15 | NE 11 | 16.09 | Mostly Cloudy | BKN090 | 16 | 4 | 45% | 75.72 | 0.0 | |||||||
| 07 | 20:55 | NE 9 | 16.09 | Overcast | OVC085 | 17 | 3 | 39% | 75.69 | 0.0 | |||||||
| 07 | 19:55 | Calm | 16.09 | Mostly Cloudy | BKN085 BKN110 | 18 | 3 | 37% | 75.64 | 0.0 | |||||||
| 07 | 19:35 | S 7 | 16.09 | Overcast | BKN090 OVC110 | 18 | 3 | 37% | 75.64 | 0.0 | |||||||
| 07 | 19:15 | SW 11 | 16.09 | Mostly Cloudy | BKN090 BKN110 | 19 | 2 | 32% | 75.64 | 0.0 | |||||||
| 07 | 18:55 | SW 15 | 16.09 | Mostly Cloudy | BKN090 BKN110 | 20 | 1 | 28% | 75.64 | 0.0 | |||||||
| 07 | 18:35 | W 19 G 33 | 16.09 | Partly Cloudy | SCT095 SCT120 | 20 | 1 | 28% | 75.64 | 0.0 | |||||||
| 07 | 18:15 | W 30 G 39 | 16.09 | A Few Clouds | FEW100 | 21 | 1 | 27% | 75.64 | 0.0 | |||||||
| 07 | 17:55 | SW 13 G 31 | 16.09 | A Few Clouds | FEW080 FEW090 FEW110 | 20 | 2 | 30% | 75.67 | 0.0 | |||||||
| 07 | 17:35 | W 24 G 35 | 16.09 | Partly Cloudy | SCT075 SCT090 | 21 | 1 | 27% | 75.67 | 0.0 | |||||||
| 07 | 17:15 | SW 20 G 33 | 16.09 | Partly Cloudy | SCT075 SCT090 | 20 | 1 | 28% | 75.67 | 0.0 | |||||||
| 07 | 16:55 | SW 26 G 35 | 12.87 | Partly Cloudy | SCT080 SCT090 | 20 | 1 | 28% | 75.69 | 0.0 | |||||||
| 07 | 16:35 | W 19 | 16.09 | A Few Clouds | FEW090 | 19 | 1 | 30% | 75.72 | 0.0 | |||||||
| 07 | 16:15 | W 22 G 31 | 16.09 | Partly Cloudy | FEW080 SCT090 | 19 | 1 | 30% | 75.72 | 0.0 | |||||||
| 07 | 15:55 | W 17 G 30 | 16.09 | A Few Clouds | FEW085 | 19 | 1 | 30% | 75.74 | 0.0 | |||||||
| 07 | 15:35 | SW 24 G 39 | 16.09 | A Few Clouds | FEW080 FEW090 | 20 | 1 | 28% | 75.74 | 0.0 | |||||||
| 07 | 15:15 | W 22 | 16.09 | Partly Cloudy | SCT080 | 19 | 0 | 28% | 75.77 | 0.0 | |||||||
| 07 | 14:55 | W 11 G 22 | 14.48 | Partly Cloudy | SCT080 | 19 | 1 | 30% | 75.77 | 0.0 | |||||||
| 07 | 14:35 | NW 11 | 16.09 | Fair | CLR | 18 | 2 | 34% | 75.79 | 0.0 | |||||||
| 07 | 14:15 | Calm | 16.09 | A Few Clouds | FEW065 | 18 | 4 | 40% | 75.79 | 0.0 | |||||||
| 07 | 13:55 | Vrbl 9 | 16.09 | Mostly Cloudy | BKN065 | 17 | 3 | 39% | 75.82 | 0.0 | |||||||
| 07 | 13:35 | Vrbl 11 G 20 | 16.09 | Partly Cloudy | SCT060 | 18 | 5 | 43% | 75.82 | 0.0 | |||||||
| 07 | 13:15 | N 15 G 35 | 16.09 | Partly Cloudy | SCT060 SCT070 | 18 | 3 | 37% | 75.84 | 0.0 | |||||||
| 07 | 12:55 | NW 26 | 16.09 | Partly Cloudy | SCT060 SCT110 | 18 | 3 | 37% | 75.87 | 0.0 | |||||||
| 07 | 12:35 | Vrbl 9 G 24 | 16.09 | Partly Cloudy | FEW050 FEW060 SCT110 | 17 | 4 | 42% | 75.9 | 0.0 | |||||||
| 07 | 12:15 | Vrbl 6 | 16.09 | A Few Clouds | FEW050 FEW110 | 16 | 5 | 48% | 75.92 | 0.0 | |||||||
| 07 | 11:55 | Calm | 16.09 | Fair | CLR | 15 | 4 | 48% | 75.97 | 0.0 | |||||||
| 07 | 11:35 | W 13 | 16.09 | A Few Clouds | FEW095 | 14 | 4 | 51% | 75.97 | 0.0 | |||||||
| 07 | 11:15 | Vrbl 9 | 16.09 | A Few Clouds | FEW095 | 13 | 4 | 55% | 76 | 0.0 | |||||||
| 07 | 10:55 | Vrbl 7 | 16.09 | Fair | CLR | 12 | 3 | 54% | 76 | 0.0 | |||||||
| 07 | 10:35 | NW 17 G 28 | 16.09 | Fair | CLR | 12 | 4 | 58% | 76 | 0.0 | |||||||
| 07 | 10:15 | Vrbl 11 | 16.09 | Fair | CLR | 12 | 4 | 58% | 76.05 | 0.0 | |||||||
| 07 | 09:55 | N 6 | 16.09 | A Few Clouds | FEW075 | 10 | 3 | 62% | 76.05 | 0.0 | |||||||
| 07 | 09:35 | N 7 | 16.09 | Partly Cloudy | SCT075 | 10 | 3 | 62% | 9 | 76.05 | 0.0 | ||||||
| 07 | 09:15 | NE 9 | 16.09 | Partly Cloudy | FEW075 SCT085 | 10 | 3 | 62% | 9 | 76.02 | 0.0 | ||||||
| 07 | 09:00 | N 7 | 16.09 | Mostly Cloudy | BKN085 | 10 | 2 | 58% | 9 | 76.05 | 0.0 | ||||||
| 07 | 08:35 | W 15 | 16.09 | Partly Cloudy | SCT090 | 10 | 3 | 62% | 8 | 76 | 0.0 | ||||||
| 07 | 08:15 | SW 17 G 26 | 16.09 | A Few Clouds | FEW090 | 10 | 2 | 58% | 8 | 75.97 | 0.0 | ||||||
| 07 | 07:55 | SW 19 | 16.09 | Fair | CLR | 9 | 2 | 62% | 7 | 75.97 | 0.0 | ||||||
| 07 | 07:35 | SW 17 | 16.09 | Fair | CLR | 8 | 1 | 62% | 6 | 75.97 | 0.0 | ||||||
| 07 | 07:15 | SW 19 | 16.09 | A Few Clouds | FEW100 | 7 | 0 | 61% | 4 | 75.95 | 0.0 | ||||||
| 07 | 06:55 | SW 20 | 16.09 | Mostly Cloudy | BKN100 | 6 | -1 | 61% | 3 | 75.95 | 0.0 | ||||||
| 07 | 06:35 | SW 19 G 30 | 16.09 | Partly Cloudy | SCT100 | 6 | -1 | 61% | 3 | 75.95 | 0.0 | ||||||
| 07 | 06:20 | SW 17 | 16.09 | Partly Cloudy | SCT100 | 6 | -2 | 57% | 3 | 75.97 | 0.0 | ||||||
| 07 | 05:55 | S 13 | 16.09 | Mostly Cloudy | FEW075 BKN090 | 5 | -2 | 61% | 2 | 75.97 | 0.0 | ||||||
| 07 | 05:35 | S 11 | 16.09 | Overcast | BKN075 OVC090 | 6 | -2 | 57% | 4 | 76 | 0.0 | ||||||
| 07 | 05:15 | S 9 | 16.09 | Overcast | BKN075 OVC090 | 6 | -2 | 57% | 4 | 76.02 | 0.0 | ||||||
| 07 | 05:00 | S 9 | 16.09 | Overcast | BKN080 OVC090 | 6 | -1 | 61% | 4 | 76.02 | 0.0 | ||||||
| 07 | 04:35 | S 13 | 16.09 | Overcast | OVC085 | 6 | -2 | 57% | 4 | 76.05 | 0.0 | ||||||
| 07 | 04:15 | S 11 | 16.09 | Overcast | OVC090 | 5 | -2 | 61% | 3 | 76.05 | 0.0 | ||||||
| 07 | 03:55 | S 13 | 16.09 | Overcast | OVC095 | 5 | -2 | 61% | 2 | 76.07 | 0.0 | ||||||
| 07 | 03:35 | S 11 | 16.09 | Overcast | BKN090 OVC110 | 5 | -3 | 57% | 3 | 76.07 | 0.0 | ||||||
| 07 | 03:15 | S 11 | 16.09 | Mostly Cloudy | FEW090 BKN110 | 5 | -3 | 57% | 3 | 76.1 | 0.0 | ||||||
| 07 | 02:55 | S 11 | 16.09 | Overcast | OVC100 | 5 | -3 | 57% | 3 | 76.1 | 0.0 | ||||||
| 07 | 02:35 | S 13 | 16.09 | Overcast | OVC100 | 5 | -3 | 57% | 2 | 76.12 | 0.0 | ||||||
| 07 | 02:15 | S 13 | 16.09 | Mostly Cloudy | BKN100 | 5 | -3 | 57% | 2 | 76.12 | 0.0 | ||||||
| 07 | 01:55 | S 13 | 16.09 | Fair | CLR | 5 | -3 | 57% | 2 | 76.15 | 0.0 | ||||||
| 07 | 00:50 | S 11 | 16.09 | Fair | CLR | 5 | -3 | 57% | 3 | 76.17 | 0.0 | ||||||
| 07 | 00:35 | S 9 | 16.09 | Fair | CLR | 6 | -3 | 53% | 4 | 76.2 | 0.0 | ||||||
| 06 | 23:15 | SW 9 | 16.09 | Fair | CLR | 7 | -4 | 46% | 5 | 76.23 | 0.0 | ||||||
| 06 | 22:55 | S 9 | 16.09 | Fair | CLR | 7 | -4 | 46% | 5 | 76.23 | 0.0 | ||||||
| 06 | 22:40 | S 9 | 16.09 | Fair | CLR | 6 | -1 | 61% | 4 | 76.23 | 0.0 | ||||||
| 06 | 22:15 | SW 7 | 16.09 | Fair | CLR | 8 | -3 | 46% | 7 | 76.23 | 0.0 | ||||||
| 06 | 21:55 | Calm | 16.09 | Fair | CLR | 9 | -5 | 37% | 76.23 | 0.0 | |||||||
| 06 | 21:35 | Calm | 16.09 | Fair | CLR | 9 | -5 | 37% | 76.23 | 0.0 | |||||||
| 06 | 21:15 | Calm | 16.09 | Fair | CLR | 10 | -6 | 32% | 76.23 | 0.0 | |||||||
| 06 | 20:55 | Calm | 16.09 | Fair | CLR | 11 | -6 | 30% | 76.23 | 0.0 | |||||||
| 06 | 20:35 | NW 6 | 16.09 | Fair | CLR | 11 | -6 | 30% | 76.2 | 0.0 | |||||||
| 06 | 20:15 | NW 6 | 16.09 | Fair | CLR | 11 | -5 | 32% | 76.2 | 0.0 | |||||||
| 06 | 19:55 | NW 9 | 16.09 | Fair | CLR | 12 | -5 | 30% | 76.2 | 0.0 | |||||||
| 06 | 19:35 | NW 13 G 26 | 16.09 | Fair | CLR | 13 | -6 | 26% | 76.2 | 0.0 | |||||||
| 06 | 19:15 | NW 15 | 16.09 | Fair | CLR | 13 | -6 | 26% | 76.23 | 0.0 | |||||||
| 06 | 18:55 | NW 17 | 16.09 | Fair | CLR | 13 | -5 | 28% | 76.23 | 0.0 | |||||||
| 06 | 18:35 | NW 19 | 14.48 | A Few Clouds | FEW085 | 13 | -6 | 26% | 76.23 | 0.0 | |||||||
| 06 | 18:15 | NW 19 G 30 | 16.09 | Partly Cloudy | SCT085 | 14 | -5 | 27% | 76.23 | 0.0 | |||||||
| 06 | 17:55 | W 31 | 16.09 | Partly Cloudy | SCT080 | 14 | -6 | 25% | 76.25 | 0.0 | |||||||
| 06 | 17:35 | NW 22 | 16.09 | A Few Clouds | FEW080 | 14 | -7 | 23% | 76.23 | 0.0 | |||||||
| 06 | 17:15 | NW 26 | 16.09 | A Few Clouds | FEW080 | 14 | -5 | 27% | 76.25 | 0.0 | |||||||
| 06 | 16:55 | NW 19 G 31 | 16.09 | A Few Clouds | FEW080 | 13 | -6 | 26% | 76.25 | 0.0 | |||||||
| 06 | 16:35 | NW 20 | 16.09 | Mostly Cloudy | BKN080 | 14 | -6 | 25% | 76.25 | 0.0 | |||||||
| 06 | 16:15 | NW 20 G 33 | 14.48 | Partly Cloudy | SCT075 | 13 | -5 | 28% | 76.28 | 0.0 | |||||||
| 06 | 15:55 | NW 20 G 35 | 16.09 | Partly Cloudy | SCT080 | 13 | -6 | 26% | 76.28 | 0.0 | |||||||
| 06 | 15:35 | NW 28 | 16.09 | Partly Cloudy | SCT075 | 13 | -5 | 28% | 76.3 | 0.0 | |||||||
| 06 | 15:15 | NW 17 G 30 | 16.09 | Partly Cloudy | SCT075 | 13 | -5 | 28% | 76.3 | 0.0 | |||||||
| 06 | 14:55 | NW 24 G 35 | 16.09 | Partly Cloudy | SCT070 SCT080 | 13 | -5 | 28% | 76.33 | 0.0 | |||||||
| 06 | 14:35 | NW 19 G 31 | 14.48 | Mostly Cloudy | BKN070 | 12 | -5 | 30% | 76.33 | 0.0 | |||||||
| 06 | 14:15 | NW 24 G 33 | 16.09 | Mostly Cloudy | BKN070 | 12 | -4 | 33% | 76.33 | 0.0 | |||||||
| 06 | 13:55 | NW 22 | 16.09 | Mostly Cloudy | BKN070 | 12 | -5 | 30% | 76.33 | 0.0 | |||||||
| 06 | 13:35 | NW 26 | 16.09 | Mostly Cloudy | BKN070 | 12 | -5 | 30% | 76.35 | 0.0 | |||||||
| 06 | 13:15 | W 19 G 33 | 16.09 | Mostly Cloudy | BKN070 | 12 | -5 | 30% | 76.35 | 0.0 | |||||||
| 06 | 12:55 | NW 19 G 35 | 16.09 | Mostly Cloudy | BKN070 | 12 | -5 | 30% | 76.35 | 0.0 | |||||||
| 06 | 12:35 | NW 24 G 37 | 16.09 | Mostly Cloudy | BKN065 | 12 | -5 | 30% | 76.38 | 0.0 | |||||||
| 06 | 12:15 | NW 26 G 43 | 16.09 | Mostly Cloudy | BKN065 | 11 | -5 | 32% | 76.38 | 0.0 | |||||||
| 06 | 11:55 | NW 24 | 16.09 | Mostly Cloudy | BKN060 | 11 | -5 | 32% | 76.38 | 0.0 | |||||||
| 06 | 11:35 | Vrbl 7 G 33 | 16.09 | Partly Cloudy | SCT060 SCT070 | 11 | -4 | 35% | 76.35 | 0.0 | |||||||
| 06 | 11:15 | NW 15 G 26 | 16.09 | Fair | CLR | 11 | -4 | 35% | 76.35 | 0.0 | |||||||
| 06 | 10:55 | Vrbl 9 G 26 | 16.09 | Fair | CLR | 10 | -4 | 37% | 9 | 76.35 | 0.0 | ||||||
| 06 | 10:35 | NW 20 | 16.09 | Fair | CLR | 10 | -4 | 37% | 8 | 76.35 | 0.0 | ||||||
| 06 | 10:15 | NW 15 | 16.09 | Fair | CLR | 9 | -4 | 40% | 7 | 76.35 | 0.0 | ||||||
| 06 | 09:55 | N 13 | 16.09 | Fair | CLR | 9 | -4 | 40% | 7 | 76.35 | 0.0 | ||||||
| 06 | 09:35 | N 13 | 16.09 | Fair | CLR | 9 | -3 | 43% | 7 | 76.35 | 0.0 | ||||||
| 06 | 09:15 | N 9 | 16.09 | Fair | CLR | 9 | -4 | 40% | 8 | 76.33 | 0.0 | ||||||
| 06 | 08:55 | N 13 | 16.09 | Fair | CLR | 8 | -3 | 46% | 6 | 76.33 | 0.0 | ||||||
| 06 | 08:35 | N 9 | 16.09 | Fair | CLR | 7 | -3 | 49% | 5 | 76.3 | 0.0 | ||||||
| 06 | 08:15 | NW 13 | 16.09 | Fair | CLR | 7 | -2 | 53% | 5 | 76.3 | 0.0 | ||||||
| 06 | 07:55 | NW 9 | 16.09 | Fair | CLR | 6 | -1 | 61% | 4 | 76.3 | 0.0 | ||||||
| 06 | 07:35 | NW 9 | 16.09 | Fair | CLR | 5 | -1 | 66% | 3 | 76.28 | 0.0 | ||||||
| 06 | 07:15 | NW 9 | 16.09 | Fair | CLR | 5 | -1 | 66% | 3 | 76.25 | 0.0 | ||||||
| 06 | 06:55 | NW 9 | 16.09 | Fair | CLR | 5 | -1 | 66% | 3 | 76.23 | 0.0 | ||||||
| 06 | 06:35 | NW 11 | 16.09 | Fair | CLR | 4 | -2 | 65% | 2 | 76.2 | 0.0 | ||||||
| 06 | 06:15 | NW 13 | 16.09 | Fair | CLR | 4 | -2 | 65% | 1 | 76.17 | 0.0 | ||||||
| 06 | 05:55 | NW 11 | 16.09 | Fair | CLR | 4 | -2 | 65% | 2 | 76.15 | 0.0 | ||||||
| 06 | 05:35 | NW 13 | 16.09 | A Few Clouds | FEW150 | 4 | -2 | 65% | 1 | 76.15 | 0.0 | ||||||
| 06 | 05:15 | NW 11 | 16.09 | A Few Clouds | FEW150 | 4 | -2 | 65% | 2 | 76.12 | 0.0 | ||||||
| 06 | 04:55 | NW 13 | 16.09 | Partly Cloudy | SCT140 SCT160 | 4 | -2 | 65% | 1 | 76.12 | 0.0 | ||||||
| 06 | 04:35 | NW 11 | 16.09 | Mostly Cloudy | FEW120 BKN140 | 4 | -2 | 65% | 2 | 76.1 | 0.0 | ||||||
| 06 | 04:15 | NW 9 | 16.09 | Partly Cloudy | FEW130 SCT150 SCT170 | 4 | -2 | 65% | 2 | 76.1 | 0.0 | ||||||
| 06 | 03:55 | NW 9 | 16.09 | Mostly Cloudy | BKN160 | 4 | -3 | 61% | 2 | 76.07 | 0.0 | ||||||
| 06 | 03:35 | NW 9 | 16.09 | Partly Cloudy | SCT160 | 4 | -3 | 61% | 2 | 76.07 | 0.0 | ||||||
| Date | Time (cdt) | Wind (kph) | Vis. (km) | Weather | Sky Cond. | Air | Dwpt | Max. | Min. | Relative Humidity | Wind Chill (°C) | Heat Index (°C) | altimeter (cm) | sea level (mb) | 1 hr | 3 hr | 6 hr |
| 6 hour | |||||||||||||||||
| Temperature (ºC) | Pressure | Precipitation (cm) | |||||||||||||||